Aeroporto :
LOGIN :

Iscrizione | Disclaimer

   EN    FR    IT 

 










Sommario :    VFR   VFR Marginale   IFR   IFR Intensivo   IFR Molto Intensivo
Visibilità : 
Base nubi : 
>= 8 km
>= 3000ft
5 / 8 km
1000 / 3000 ft
1500m / 5 km
500 / 1000 ft
800 / 1500m
200 / 500 ft
< 800m
< 200 ft
Simboli :   Temporali  Nebbia  Neve Forte  Precipitazioni Forti  Vento > 20 kt
SIGMETs :   Varie  Temporali  Ghiacco  Turbolenza  Onda orograficha  Ceneri Vulcaniche







- Altitudine del aeroporto : 82 ft
- Codice IATA : AAR


EKAH - Aarhus Tirstrup

ULTIMO METAR :
  • 190120Z AUTO VRB01KT 9999NDV BKN054/// 01/M00 Q1017

METARs OBSOLETI :
  • 190050Z AUTO 28003KT 9999NDV FEW085/// 01/00 Q1016
  • 190020Z AUTO 28003KT 9999NDV BKN086/// 02/01 Q1016
  • 182350Z AUTO 27004KT 9999NDV FEW066/// BKN085/// 02/01 Q1015
  • 182320Z AUTO 27004KT 9999NDV FEW065/// BKN083/// 02/01 Q1015
  • 182250Z AUTO 26002KT 9999NDV BKN082/// 01/M00 Q1015

TAF TAF EKAH
Valido dal 19 a 00 ore il 20 a 00 ore UTC


182311Z 1900/1924 28005KT 9999 FEW020
Nessun NOTAM noto per questo aeroporto.



MetMap, La meteo Aeronautica in un colpo d'occhio ! - Copyright ORBIFLY Dicembre 2007 - Disclaimer

ORBIFLY MET'MAP TEAM :

Programmazione e sviluppo : Alexandra Zaïnal
Concezione e sviluppo : Baudouin d'Aumeries
Co-Programmazione e sviluppo : Marc-Olivier Méhu
Supporto tecnico e logistico : Manuel Goepfert
Aiuto per la traduzione : Arnaldo La Scala

Contatto : metmap@orbifly.com




FONTI E CREDITI :

   NOAA